createdAt,value
2022-09-27T00:00:47.371Z,96423.88
2022-09-27T00:06:01.666Z,96430.00
2022-09-27T00:11:05.814Z,96435.31
2022-09-27T00:16:08.535Z,96428.53
2022-09-27T00:21:14.461Z,96423.22
2022-09-27T00:26:17.227Z,96434.69
2022-09-27T00:31:22.227Z,96427.03
2022-09-27T00:36:27.535Z,96423.72
2022-09-27T00:41:32.580Z,96428.56
2022-09-27T00:46:39.752Z,96418.28
2022-09-27T00:51:47.032Z,96418.47
2022-09-27T00:56:51.411Z,96415.63
2022-09-27T01:01:54.382Z,96420.84
2022-09-27T01:06:58.489Z,96419.34
2022-09-27T01:12:12.097Z,96421.00
2022-09-27T01:17:33.589Z,96421.72
2022-09-27T01:22:47.414Z,96423.53
2022-09-27T01:28:11.807Z,96416.56
2022-09-27T01:33:27.221Z,96421.56
2022-09-27T01:38:38.443Z,96420.75
2022-09-27T01:43:49.865Z,96428.44
2022-09-27T01:49:03.228Z,96421.78
2022-09-27T01:54:11.251Z,96432.78
2022-09-27T01:59:39.202Z,96427.16
2022-09-27T02:05:13.665Z,96438.34
2022-09-27T02:10:20.510Z,96442.31
2022-09-27T02:15:33.622Z,96440.19
2022-09-27T02:20:59.816Z,96457.66
2022-09-27T02:26:05.002Z,96451.22
2022-09-27T02:31:07.891Z,96457.38
2022-09-27T02:36:13.789Z,96458.75
2022-09-27T02:41:17.534Z,96464.22
2022-09-27T02:46:42.884Z,96468.22
2022-09-27T02:52:01.113Z,96480.00
2022-09-27T02:57:14.369Z,96481.53
2022-09-27T03:02:45.716Z,96487.53
2022-09-27T03:08:08.998Z,96488.19
2022-09-27T03:13:12.964Z,96489.50
2022-09-27T03:18:16.397Z,96492.34
2022-09-27T03:23:52.599Z,96500.00
2022-09-27T03:28:55.417Z,96514.28
2022-09-27T03:33:58.191Z,96511.78
2022-09-27T03:39:02.651Z,96512.44
2022-09-27T03:44:05.476Z,96513.63
2022-09-27T03:49:08.423Z,96507.63
2022-09-27T03:54:12.621Z,96512.94
2022-09-27T03:59:15.485Z,96509.63
2022-09-27T04:04:41.023Z,96508.31
2022-09-27T04:09:46.824Z,96517.13
2022-09-27T04:14:49.525Z,96522.56
2022-09-27T04:20:12.688Z,96523.91
2022-09-27T04:25:19.959Z,96525.75
2022-09-27T04:30:47.549Z,96524.91
2022-09-27T04:36:29.397Z,96526.91
2022-09-27T04:41:38.531Z,96537.53
2022-09-27T04:46:41.586Z,96537.72
2022-09-27T04:51:44.513Z,96543.00
2022-09-27T04:56:49.608Z,96550.81
2022-09-27T05:01:52.470Z,96557.78
2022-09-27T05:07:28.681Z,96557.09
2022-09-27T05:12:39.207Z,96564.06
2022-09-27T05:17:42.011Z,96576.69
2022-09-27T05:23:04.434Z,96582.34
2022-09-27T05:28:09.441Z,96584.31
2022-09-27T05:33:13.240Z,96600.25
2022-09-27T05:38:27.239Z,96612.53
2022-09-27T05:43:34.638Z,96610.03
2022-09-27T05:48:38.272Z,96612.53
2022-09-27T05:53:43.497Z,96622.16
2022-09-27T05:58:56.019Z,96625.81
2022-09-27T06:03:59.366Z,96638.91
2022-09-27T06:09:41.791Z,96638.25
2022-09-27T06:14:46.064Z,96652.38
2022-09-27T06:19:53.790Z,96655.84
2022-09-27T06:24:56.581Z,96660.16
2022-09-27T06:30:04.488Z,96663.66
2022-09-27T06:35:24.946Z,96672.81
2022-09-27T06:40:28.595Z,96676.28
2022-09-27T06:45:56.370Z,96676.00
2022-09-27T06:51:18.847Z,96691.28
2022-09-27T06:56:23.282Z,96699.78
2022-09-27T07:01:31.608Z,96700.59
2022-09-27T07:06:50.301Z,96704.09
2022-09-27T07:11:58.336Z,96708.72
2022-09-27T07:17:03.505Z,96717.41
2022-09-27T07:22:14.908Z,96720.38
2022-09-27T07:27:22.137Z,96713.47
2022-09-27T07:32:26.386Z,96727.53
2022-09-27T07:37:34.567Z,96730.75
2022-09-27T07:42:39.181Z,96743.16
2022-09-27T07:47:43.515Z,96741.44
2022-09-27T07:52:53.335Z,96749.78
2022-09-27T07:58:14.914Z,96754.81
2022-09-27T08:03:21.624Z,96757.69
2022-09-27T08:08:25.345Z,96760.78
2022-09-27T08:13:53.885Z,96764.94
2022-09-27T08:19:02.864Z,96767.41
2022-09-27T08:24:20.379Z,96765.38
2022-09-27T08:29:41.646Z,96770.41
2022-09-27T08:34:46.564Z,96769.88
2022-09-27T08:39:49.583Z,96775.34
2022-09-27T08:45:03.665Z,96781.97
2022-09-27T08:50:26.389Z,96790.63
2022-09-27T08:55:33.378Z,96783.97
2022-09-27T09:00:36.504Z,96778.59
2022-09-27T09:05:41.392Z,96784.63
2022-09-27T09:11:11.919Z,96790.34
2022-09-27T09:16:30.506Z,96788.38
2022-09-27T09:22:07.483Z,96786.38
2022-09-27T09:27:20.512Z,96780.25
2022-09-27T09:32:39.092Z,96786.19
2022-09-27T09:37:48.424Z,96789.56
2022-09-27T09:42:58.286Z,96791.00
2022-09-27T09:48:10.077Z,96782.34
2022-09-27T09:53:19.302Z,96780.47
2022-09-27T09:58:27.487Z,96782.41
2022-09-27T10:03:36.438Z,96769.88
2022-09-27T10:08:41.432Z,96777.56
2022-09-27T10:14:12.501Z,96782.06
2022-09-27T10:19:19.538Z,96779.91
2022-09-27T10:24:25.594Z,96774.34
2022-09-27T10:29:44.572Z,96767.13
2022-09-27T10:34:53.905Z,96768.38
2022-09-27T10:40:00.506Z,96772.31
2022-09-27T10:45:23.645Z,96764.13
2022-09-27T10:50:50.263Z,96774.84
2022-09-27T10:56:03.500Z,96765.97
2022-09-27T11:01:09.726Z,96763.94
2022-09-27T11:06:32.069Z,96760.09
2022-09-27T11:11:37.506Z,96743.72
2022-09-27T11:16:51.858Z,96752.97
2022-09-27T11:22:02.604Z,96748.13
2022-09-27T11:27:24.093Z,96744.75
2022-09-27T11:32:36.511Z,96740.25
2022-09-27T11:37:49.446Z,96735.63
2022-09-27T11:43:28.506Z,96729.25
2022-09-27T11:48:50.381Z,96719.66
2022-09-27T11:54:06.763Z,96742.91
2022-09-27T11:59:38.355Z,96732.91
2022-09-27T12:05:01.987Z,96720.91
2022-09-27T12:10:13.784Z,96729.22
2022-09-27T12:15:22.195Z,96720.13
2022-09-27T12:20:31.082Z,96714.72
2022-09-27T12:25:40.107Z,96712.13
2022-09-27T12:31:28.012Z,96711.53
2022-09-27T12:36:38.799Z,96716.28
2022-09-27T12:41:49.180Z,96712.84
2022-09-27T12:47:21.535Z,96712.44
2022-09-27T12:52:31.583Z,96708.44
2022-09-27T12:57:47.652Z,96706.66
2022-09-27T13:03:26.284Z,96701.34
2022-09-27T13:08:57.950Z,96712.44
2022-09-27T13:14:29.586Z,96704.19
2022-09-27T13:19:43.286Z,96701.25
2022-09-27T13:24:50.977Z,96702.75
2022-09-27T13:30:49.034Z,96703.81
2022-09-27T13:36:17.469Z,96708.09
2022-09-27T13:41:23.597Z,96706.38
2022-09-27T13:46:35.411Z,96704.72
2022-09-27T13:51:44.546Z,96701.34
2022-09-27T13:56:53.415Z,96702.84
2022-09-27T14:02:12.687Z,96703.88
2022-09-27T14:07:20.663Z,96695.81
2022-09-27T14:12:33.097Z,96701.03
2022-09-27T14:17:45.685Z,96706.19
2022-09-27T14:22:56.649Z,96712.69
2022-09-27T14:28:04.027Z,96712.97
2022-09-27T14:33:29.801Z,96712.97
2022-09-27T14:38:38.455Z,96719.22
2022-09-27T14:43:56.247Z,96705.56
2022-09-27T14:48:59.692Z,96714.16
2022-09-27T14:54:05.585Z,96723.19
2022-09-27T14:59:14.040Z,96721.44
2022-09-27T15:04:17.484Z,96724.31
2022-09-27T15:09:23.261Z,96726.88
2022-09-27T15:14:28.106Z,96731.47
2022-09-27T15:19:31.031Z,96725.06
2022-09-27T15:30:20.129Z,96736.06
2022-09-27T15:35:33.294Z,96748.44
2022-09-27T15:41:05.938Z,96762.16
2022-09-27T15:46:30.226Z,96760.34
2022-09-27T15:51:40.626Z,96761.97
2022-09-27T15:56:44.918Z,96771.38
2022-09-27T16:01:48.171Z,96769.38
2022-09-27T16:06:51.408Z,96777.19
2022-09-27T16:11:55.583Z,96772.69
2022-09-27T16:16:59.988Z,96774.22
2022-09-27T16:22:03.628Z,96770.88
2022-09-27T16:27:07.761Z,96772.91
2022-09-27T16:32:11.036Z,96775.41
2022-09-27T16:37:21.773Z,96769.06
2022-09-27T16:42:27.324Z,96775.91
2022-09-27T16:47:30.397Z,96779.88
2022-09-27T16:52:33.863Z,96776.41
2022-09-27T16:57:38.220Z,96780.88
2022-09-27T17:02:41.411Z,96777.38
2022-09-27T17:07:44.492Z,96778.91
2022-09-27T17:12:49.020Z,96776.06
2022-09-27T17:17:51.953Z,96777.06
2022-09-27T17:22:54.741Z,96781.69
2022-09-27T17:27:59.291Z,96774.91
2022-09-27T17:33:02.021Z,96776.38
2022-09-27T17:38:05.445Z,96776.19
2022-09-27T17:43:09.482Z,96769.69
2022-09-27T17:48:38.835Z,96774.19
2022-09-27T17:53:42.787Z,96773.34
2022-09-27T17:58:50.979Z,96773.50
2022-09-27T18:03:55.695Z,96770.50
2022-09-27T18:08:58.750Z,96778.09
2022-09-27T18:14:03.492Z,96779.28
2022-09-27T18:19:08.138Z,96776.28
2022-09-27T18:24:11.632Z,96780.94
2022-09-27T18:29:19.171Z,96779.56
2022-09-27T18:34:25.160Z,96780.88
2022-09-27T18:39:28.106Z,96772.22
2022-09-27T18:44:32.962Z,96766.56
2022-09-27T18:49:35.762Z,96766.75
2022-09-27T18:54:40.890Z,96759.91
2022-09-27T18:59:48.064Z,96761.38
2022-09-27T19:04:51.204Z,96762.88
2022-09-27T19:09:53.887Z,96766.88
2022-09-27T19:14:57.932Z,96762.69
2022-09-27T19:20:00.903Z,96756.06
2022-09-27T19:25:03.632Z,96758.88
2022-09-27T19:30:08.787Z,96753.06
2022-09-27T19:35:12.335Z,96739.63
2022-09-27T19:40:15.358Z,96741.28
2022-09-27T19:45:20.891Z,96742.28
2022-09-27T19:50:25.083Z,96740.06
2022-09-27T19:55:27.779Z,96749.50
2022-09-27T20:00:36.055Z,96744.63
2022-09-27T20:05:38.806Z,96738.63
2022-09-27T20:10:42.303Z,96735.13
2022-09-27T20:15:47.421Z,96729.94
2022-09-27T20:20:50.215Z,96720.50
2022-09-27T20:25:53.239Z,96720.63
2022-09-27T20:31:02.731Z,96721.63
2022-09-27T20:36:05.923Z,96717.66
2022-09-27T20:41:09.257Z,96716.31
2022-09-27T20:46:15.537Z,96710.19
2022-09-27T20:51:18.366Z,96718.81
2022-09-27T20:56:23.421Z,96704.56
2022-09-27T21:01:29.037Z,96697.72
2022-09-27T21:06:35.544Z,96691.09
2022-09-27T21:11:38.605Z,96684.53
2022-09-27T21:16:42.902Z,96681.34
2022-09-27T21:21:45.702Z,96671.53
2022-09-27T21:26:48.472Z,96677.50
2022-09-27T21:31:52.633Z,96668.53
2022-09-27T21:36:55.447Z,96652.59
2022-09-27T21:41:58.361Z,96660.34
2022-09-27T21:47:02.546Z,96653.91
2022-09-27T21:52:05.521Z,96647.09
2022-09-27T21:57:08.564Z,96646.41
2022-09-27T22:02:12.730Z,96633.66
2022-09-27T22:07:15.483Z,96622.50
2022-09-27T22:12:18.196Z,96610.41
2022-09-27T22:17:23.010Z,96615.34
2022-09-27T22:22:26.308Z,96609.44
2022-09-27T22:27:29.354Z,96604.25
2022-09-27T22:32:33.479Z,96595.50
2022-09-27T22:37:37.203Z,96579.72
2022-09-27T22:42:39.895Z,96584.22
2022-09-27T22:47:43.982Z,96574.75
2022-09-27T22:52:46.758Z,96559.00
2022-09-27T22:57:49.487Z,96556.84
2022-09-27T23:02:56.781Z,96548.72
2022-09-27T23:07:59.484Z,96535.81
2022-09-27T23:13:02.367Z,96539.78
2022-09-27T23:18:07.025Z,96526.84
2022-09-27T23:23:14.374Z,96518.69
2022-09-27T23:28:16.936Z,96507.41
2022-09-27T23:33:21.956Z,96507.09
2022-09-27T23:38:24.673Z,96496.63
2022-09-27T23:43:28.243Z,96486.19
2022-09-27T23:48:33.925Z,96478.06
2022-09-27T23:53:37.396Z,96470.09
2022-09-27T23:58:42.391Z,96466.44
